createdAt,value
2023-02-21T00:02:05.081Z,0.40
2023-02-21T00:04:50.932Z,0.50
2023-02-21T00:07:37.576Z,0.47
2023-02-21T00:10:25.740Z,0.43
2023-02-21T00:13:11.683Z,0.33
2023-02-21T00:15:57.842Z,0.47
2023-02-21T00:18:44.211Z,0.50
2023-02-21T00:21:30.397Z,0.20
2023-02-21T00:24:17.261Z,0.97
2023-02-21T00:27:04.704Z,0.20
2023-02-21T00:29:50.970Z,0.30
2023-02-21T00:32:37.207Z,0.20
2023-02-21T00:35:23.621Z,0.50
2023-02-21T00:38:09.672Z,0.30
2023-02-21T00:40:55.726Z,0.20
2023-02-21T00:43:48.283Z,0.20
2023-02-21T00:46:34.895Z,0.37
2023-02-21T00:49:21.084Z,0.27
2023-02-21T00:52:07.460Z,0.30
2023-02-21T00:54:53.802Z,0.20
2023-02-21T00:57:39.887Z,0.40
2023-02-21T01:00:29.135Z,0.30
2023-02-21T01:03:15.327Z,0.17
2023-02-21T01:06:01.524Z,0.20
2023-02-21T01:08:48.060Z,0.20
2023-02-21T01:11:34.898Z,0.10
2023-02-21T01:14:21.173Z,0.23
2023-02-21T01:17:13.448Z,0.10
2023-02-21T01:20:00.054Z,0.20
2023-02-21T01:22:46.053Z,0.13
2023-02-21T01:25:32.941Z,0.20
2023-02-21T01:28:18.932Z,0.20
2023-02-21T01:31:05.607Z,0.13
2023-02-21T01:33:55.800Z,0.37
2023-02-21T01:36:41.806Z,0.30
2023-02-21T01:39:27.811Z,0.20
2023-02-21T01:42:13.756Z,0.30
2023-02-21T01:45:01.229Z,0.30
2023-02-21T01:47:47.619Z,0.20
2023-02-21T01:50:37.951Z,0.33
2023-02-21T01:53:32.960Z,0.10
2023-02-21T01:56:19.406Z,0.10
2023-02-21T01:59:06.309Z,0.10
2023-02-21T02:01:56.229Z,0.20
2023-02-21T02:04:42.545Z,0.10
2023-02-21T02:07:30.038Z,0.10
2023-02-21T02:10:16.366Z,0.27
2023-02-21T02:12:57.474Z,0.20
2023-02-21T02:15:45.020Z,0.17
2023-02-21T02:18:23.211Z,0.20
2023-02-21T02:21:09.779Z,0.20
2023-02-21T02:23:56.982Z,0.20
2023-02-21T02:26:40.384Z,0.20
2023-02-21T02:29:20.998Z,0.27
2023-02-21T02:32:06.851Z,0.20
2023-02-21T02:34:43.876Z,0.20
2023-02-21T02:37:16.678Z,0.10
2023-02-21T02:39:48.305Z,0.20
2023-02-21T02:42:21.647Z,0.20
2023-02-21T02:44:52.859Z,0.10
2023-02-21T02:47:24.811Z,0.23
2023-02-21T02:49:56.463Z,0.10
2023-02-21T02:52:25.017Z,0.20
2023-02-21T02:55:00.647Z,0.20
2023-02-21T02:57:29.871Z,0.27
2023-02-21T02:59:58.947Z,0.13
2023-02-21T03:02:42.345Z,0.10
2023-02-21T03:05:17.398Z,0.00
2023-02-21T03:07:50.187Z,0.17
2023-02-21T03:10:23.180Z,0.10
2023-02-21T03:12:54.226Z,0.10
2023-02-21T03:15:23.900Z,0.10
2023-02-21T03:17:55.175Z,0.03
2023-02-21T03:20:26.884Z,0.00
2023-02-21T03:22:57.325Z,0.10
2023-02-21T03:25:26.424Z,0.10
2023-02-21T03:27:56.332Z,0.00
2023-02-21T03:30:25.040Z,0.00
2023-02-21T03:32:54.816Z,0.00
2023-02-21T03:35:23.627Z,0.03
2023-02-21T03:37:54.447Z,0.00
2023-02-21T03:40:24.962Z,0.20
2023-02-21T03:42:53.987Z,0.10
2023-02-21T03:45:22.771Z,0.07
2023-02-21T03:47:51.320Z,0.00
2023-02-21T03:50:20.065Z,0.10
2023-02-21T03:52:48.535Z,0.13
2023-02-21T03:55:18.562Z,0.10
2023-02-21T03:57:47.147Z,0.00
2023-02-21T04:00:16.353Z,0.07
2023-02-21T04:02:45.023Z,0.10
2023-02-21T04:05:14.002Z,0.00
2023-02-21T04:07:42.466Z,0.10
2023-02-21T04:10:11.195Z,0.10
2023-02-21T04:12:41.160Z,0.00
2023-02-21T04:15:10.100Z,0.13
2023-02-21T04:17:38.702Z,0.13
2023-02-21T04:20:07.579Z,0.20
2023-02-21T04:22:36.051Z,0.00
2023-02-21T04:25:04.648Z,0.03
2023-02-21T04:27:34.858Z,0.10
2023-02-21T04:30:05.026Z,0.10
2023-02-21T04:32:33.816Z,0.00
2023-02-21T04:35:02.412Z,0.27
2023-02-21T04:37:31.060Z,0.10
2023-02-21T04:39:59.707Z,0.10
2023-02-21T04:42:28.176Z,0.00
2023-02-21T04:45:00.250Z,0.00
2023-02-21T04:47:30.569Z,0.20
2023-02-21T04:49:59.141Z,0.00
2023-02-21T04:52:27.623Z,0.00
2023-02-21T04:54:56.537Z,0.10
2023-02-21T04:57:25.203Z,0.10
2023-02-21T04:59:58.758Z,0.10
2023-02-21T05:02:27.578Z,0.00
2023-02-21T05:04:58.803Z,0.10
2023-02-21T05:07:27.564Z,0.10
2023-02-21T05:09:56.143Z,0.00
2023-02-21T05:12:24.631Z,0.10
2023-02-21T05:14:53.494Z,0.00
2023-02-21T05:17:22.168Z,0.00
2023-02-21T05:19:51.890Z,0.00
2023-02-21T05:22:21.984Z,0.10
2023-02-21T05:24:50.995Z,0.07
2023-02-21T05:27:20.346Z,0.10
2023-02-21T05:29:49.545Z,0.00
2023-02-21T05:32:18.586Z,0.00
2023-02-21T05:34:47.930Z,0.00
2023-02-21T05:37:16.794Z,0.00
2023-02-21T05:39:46.798Z,0.10
2023-02-21T05:42:15.560Z,0.07
2023-02-21T05:44:45.686Z,0.00
2023-02-21T05:47:14.291Z,0.10
2023-02-21T05:49:43.152Z,0.10
2023-02-21T05:52:13.635Z,0.00
2023-02-21T05:54:42.177Z,0.20
2023-02-21T05:57:12.053Z,0.07
2023-02-21T05:59:40.728Z,0.10
2023-02-21T06:02:09.436Z,0.10
2023-02-21T06:04:37.945Z,0.03
2023-02-21T06:07:06.608Z,0.10
2023-02-21T06:09:35.279Z,0.10
2023-02-21T06:12:03.785Z,0.00
2023-02-21T06:14:33.778Z,0.00
2023-02-21T06:17:02.849Z,0.00
2023-02-21T06:19:33.330Z,0.20
2023-02-21T06:22:02.148Z,0.10
2023-02-21T06:24:31.026Z,0.03
2023-02-21T06:26:59.496Z,0.00
2023-02-21T06:29:28.124Z,0.10
2023-02-21T06:32:00.023Z,0.10
2023-02-21T06:34:29.426Z,0.17
2023-02-21T06:36:58.548Z,0.00
2023-02-21T06:39:27.025Z,0.00
2023-02-21T06:41:55.596Z,0.10
2023-02-21T06:44:24.170Z,0.00
2023-02-21T06:46:54.804Z,0.10
2023-02-21T06:49:24.828Z,0.10
2023-02-21T06:51:53.520Z,0.10
2023-02-21T06:54:22.029Z,0.00
2023-02-21T06:56:50.788Z,0.10
2023-02-21T06:59:19.388Z,0.10
2023-02-21T07:01:47.873Z,0.03
2023-02-21T07:04:16.666Z,0.00
2023-02-21T07:06:46.523Z,0.10
2023-02-21T07:09:15.118Z,0.00
2023-02-21T07:11:44.579Z,0.00
2023-02-21T07:14:13.047Z,0.10
2023-02-21T07:16:41.513Z,0.00
2023-02-21T07:19:10.236Z,0.10
2023-02-21T07:21:41.676Z,0.20
2023-02-21T07:24:11.891Z,0.10
2023-02-21T07:26:40.532Z,0.00
2023-02-21T07:29:09.154Z,0.10
2023-02-21T07:31:37.829Z,0.07
2023-02-21T07:34:06.544Z,0.10
2023-02-21T07:36:35.019Z,0.10
2023-02-21T07:39:03.593Z,0.10
2023-02-21T07:41:33.599Z,0.00
2023-02-21T07:44:02.089Z,0.10
2023-02-21T07:46:31.177Z,0.00
2023-02-21T07:48:59.880Z,0.10
2023-02-21T07:51:29.779Z,0.10
2023-02-21T07:53:58.751Z,0.00
2023-02-21T07:56:27.430Z,0.00
2023-02-21T07:58:57.305Z,0.00
2023-02-21T08:01:26.849Z,0.13
2023-02-21T08:03:55.555Z,0.00
2023-02-21T08:06:24.050Z,0.10
2023-02-21T08:08:52.581Z,0.13
2023-02-21T08:11:21.175Z,0.30
2023-02-21T08:13:49.811Z,0.10
2023-02-21T08:16:19.822Z,0.00
2023-02-21T08:18:50.735Z,0.00
2023-02-21T08:21:19.395Z,0.00
2023-02-21T08:23:47.959Z,0.10
2023-02-21T08:26:16.622Z,0.10
2023-02-21T08:28:45.088Z,0.00
2023-02-21T08:31:14.046Z,0.10
2023-02-21T08:33:44.190Z,0.00
2023-02-21T08:36:12.795Z,0.10
2023-02-21T08:38:41.371Z,0.10
2023-02-21T08:41:10.520Z,0.07
2023-02-21T08:43:39.302Z,0.00
2023-02-21T08:46:09.332Z,0.00
2023-02-21T08:48:37.806Z,0.03
2023-02-21T08:51:08.090Z,0.00
2023-02-21T08:53:36.869Z,0.00
2023-02-21T08:56:05.373Z,0.03
2023-02-21T08:58:34.949Z,0.23
2023-02-21T09:01:04.403Z,0.00
2023-02-21T09:03:32.936Z,0.00
2023-02-21T09:06:03.130Z,0.00
2023-02-21T09:08:33.332Z,0.10
2023-02-21T09:11:01.810Z,0.00
2023-02-21T09:13:30.612Z,0.00
2023-02-21T09:15:59.307Z,0.00
2023-02-21T09:18:27.803Z,0.03
2023-02-21T09:20:57.386Z,0.07
2023-02-21T09:23:27.957Z,0.10
2023-02-21T09:25:58.167Z,0.20
2023-02-21T09:28:26.761Z,0.00
2023-02-21T09:30:55.481Z,0.10
2023-02-21T09:33:25.247Z,0.00
2023-02-21T09:35:54.951Z,0.00
2023-02-21T09:38:23.543Z,0.07
2023-02-21T09:40:53.708Z,0.10
2023-02-21T09:43:27.180Z,0.03
2023-02-21T09:45:57.574Z,0.10
2023-02-21T09:48:26.271Z,0.00
2023-02-21T09:50:56.531Z,0.00
2023-02-21T09:53:27.226Z,0.20
2023-02-21T09:55:56.893Z,0.00
2023-02-21T09:58:26.915Z,0.00
2023-02-21T10:00:58.777Z,0.20
2023-02-21T10:03:41.735Z,0.20
2023-02-21T10:06:14.190Z,0.00
2023-02-21T10:08:46.596Z,0.00
2023-02-21T10:11:22.889Z,0.20
2023-02-21T10:13:57.855Z,0.10
2023-02-21T10:16:29.300Z,0.10
2023-02-21T10:19:03.139Z,0.00
2023-02-21T10:21:33.950Z,0.10
2023-02-21T10:24:04.974Z,0.20
2023-02-21T10:26:37.705Z,0.20
2023-02-21T10:29:11.027Z,0.10
2023-02-21T10:31:41.060Z,0.00
2023-02-21T10:34:26.566Z,0.10
2023-02-21T10:36:56.348Z,0.10
2023-02-21T10:39:27.798Z,0.10
2023-02-21T10:41:56.808Z,0.10
2023-02-21T10:44:28.137Z,0.10
2023-02-21T10:46:58.081Z,0.00
2023-02-21T10:49:29.341Z,0.07
2023-02-21T10:52:08.761Z,0.17
2023-02-21T10:54:37.358Z,0.10
2023-02-21T10:57:06.880Z,0.17
2023-02-21T10:59:38.472Z,0.00
2023-02-21T11:02:27.932Z,0.13
2023-02-21T11:04:57.071Z,0.13
2023-02-21T11:07:25.630Z,0.10
2023-02-21T11:09:55.747Z,0.10
2023-02-21T11:12:26.187Z,0.00
2023-02-21T11:15:21.659Z,0.13
2023-02-21T11:18:04.165Z,0.20
2023-02-21T11:20:32.853Z,0.10
2023-02-21T11:23:01.591Z,0.00
2023-02-21T11:25:32.019Z,0.10
2023-02-21T11:28:01.641Z,0.07
2023-02-21T11:30:30.667Z,0.10
2023-02-21T11:33:02.054Z,0.17
2023-02-21T11:35:32.618Z,0.10
2023-02-21T11:38:01.892Z,0.20
2023-02-21T11:40:35.643Z,0.20
2023-02-21T11:43:21.571Z,0.10
2023-02-21T11:45:54.080Z,0.00
2023-02-21T11:48:31.329Z,0.20
2023-02-21T11:51:00.485Z,0.17
2023-02-21T11:53:32.850Z,0.20
2023-02-21T11:56:07.096Z,0.10
2023-02-21T11:58:41.425Z,0.10
2023-02-21T12:01:14.255Z,0.10
2023-02-21T12:04:00.132Z,0.10
2023-02-21T12:06:32.684Z,0.20
2023-02-21T12:09:03.700Z,0.10
2023-02-21T12:11:45.356Z,0.10
2023-02-21T12:14:24.201Z,0.13
2023-02-21T12:16:57.456Z,0.13
2023-02-21T12:19:35.866Z,0.10
2023-02-21T12:22:06.136Z,0.20
2023-02-21T12:24:45.571Z,0.10
2023-02-21T12:27:19.127Z,0.03
2023-02-21T12:29:56.721Z,0.33
2023-02-21T12:32:36.104Z,0.20
2023-02-21T12:35:24.232Z,0.20
2023-02-21T12:37:55.934Z,0.20
2023-02-21T12:40:29.547Z,0.13
2023-02-21T12:43:14.953Z,0.20
2023-02-21T12:45:50.656Z,0.10
2023-02-21T12:48:21.614Z,0.20
2023-02-21T12:50:54.371Z,0.30
2023-02-21T12:53:26.680Z,0.20
2023-02-21T12:56:00.412Z,0.20
2023-02-21T12:58:30.733Z,0.10
2023-02-21T13:01:01.021Z,0.20
2023-02-21T13:03:44.443Z,0.10
2023-02-21T13:06:17.633Z,0.20
2023-02-21T13:08:52.052Z,0.20
2023-02-21T13:11:24.117Z,0.20
2023-02-21T13:13:52.698Z,0.10
2023-02-21T13:16:21.892Z,0.13
2023-02-21T13:18:59.460Z,0.20
2023-02-21T13:21:35.779Z,0.30
2023-02-21T13:24:23.738Z,0.10
2023-02-21T13:26:57.829Z,0.10
2023-02-21T13:29:28.181Z,0.17
2023-02-21T13:32:00.554Z,0.30
2023-02-21T13:34:31.734Z,0.10
2023-02-21T13:37:06.905Z,0.17
2023-02-21T13:39:37.716Z,0.20
2023-02-21T13:42:08.543Z,0.20
2023-02-21T13:44:38.472Z,0.10
2023-02-21T13:47:10.579Z,0.07
2023-02-21T13:49:41.580Z,0.20
2023-02-21T13:52:26.663Z,0.30
2023-02-21T13:55:11.565Z,0.23
2023-02-21T13:57:40.976Z,0.20
2023-02-21T14:00:27.841Z,0.30
2023-02-21T14:02:57.230Z,0.20
2023-02-21T14:05:26.095Z,0.20
2023-02-21T14:08:00.911Z,0.20
2023-02-21T14:10:35.227Z,0.23
2023-02-21T14:13:06.264Z,0.20
2023-02-21T14:15:38.569Z,0.20
2023-02-21T14:18:08.612Z,0.20
2023-02-21T14:20:38.380Z,0.30
2023-02-21T14:23:08.379Z,0.20
2023-02-21T14:25:41.420Z,0.20
2023-02-21T14:28:24.724Z,0.20
2023-02-21T14:31:03.752Z,0.20
2023-02-21T14:33:32.580Z,0.30
2023-02-21T14:36:04.812Z,0.20
2023-02-21T14:38:38.080Z,0.40
2023-02-21T14:41:12.083Z,0.20
2023-02-21T14:43:46.920Z,0.30
2023-02-21T14:46:33.719Z,0.30
2023-02-21T14:49:23.505Z,0.20
2023-02-21T14:52:08.420Z,0.20
2023-02-21T14:54:55.301Z,0.10
2023-02-21T14:57:36.600Z,0.20
2023-02-21T15:00:12.160Z,0.20
2023-02-21T15:02:43.353Z,0.10
2023-02-21T15:05:16.035Z,0.43
2023-02-21T15:07:55.632Z,0.40
2023-02-21T15:10:26.691Z,0.20
2023-02-21T15:12:57.271Z,0.40
2023-02-21T15:15:27.984Z,0.20
2023-02-21T15:17:57.946Z,0.30
2023-02-21T15:20:26.679Z,0.30
2023-02-21T15:22:58.804Z,0.20
2023-02-21T15:25:28.746Z,0.30
2023-02-21T15:28:01.444Z,0.40
2023-02-21T15:30:36.792Z,0.30
2023-02-21T15:33:09.748Z,0.30
2023-02-21T15:35:40.812Z,0.30
2023-02-21T15:38:13.302Z,0.20
2023-02-21T15:40:43.435Z,0.40
2023-02-21T15:43:16.640Z,0.20
2023-02-21T15:45:46.999Z,0.40
2023-02-21T15:48:15.838Z,0.40
2023-02-21T15:50:46.730Z,0.53
2023-02-21T15:53:17.744Z,0.40
2023-02-21T15:55:48.111Z,0.40
2023-02-21T15:58:18.769Z,0.40
2023-02-21T16:00:47.743Z,0.30
2023-02-21T16:03:33.546Z,0.20
2023-02-21T16:06:15.999Z,0.30
2023-02-21T16:08:53.234Z,0.50
2023-02-21T16:11:23.113Z,0.40
2023-02-21T16:13:51.693Z,0.60
2023-02-21T16:16:20.527Z,0.53
2023-02-21T16:18:56.180Z,0.50
2023-02-21T16:21:26.983Z,0.50
2023-02-21T16:23:55.463Z,0.30
2023-02-21T16:26:28.403Z,0.27
2023-02-21T16:28:59.193Z,0.30
2023-02-21T16:31:28.512Z,0.40
2023-02-21T16:33:57.467Z,0.43
2023-02-21T16:36:27.765Z,0.40
2023-02-21T16:38:56.626Z,0.43
2023-02-21T16:41:26.930Z,0.40
2023-02-21T16:43:55.480Z,0.50
2023-02-21T16:46:27.706Z,0.50
2023-02-21T16:48:59.006Z,0.50
2023-02-21T16:51:33.549Z,0.37
2023-02-21T16:54:02.502Z,0.60
2023-02-21T16:56:32.414Z,0.50
2023-02-21T16:59:00.927Z,0.37
2023-02-21T17:01:30.760Z,0.37
2023-02-21T17:03:59.474Z,0.60
2023-02-21T17:06:29.086Z,0.30
2023-02-21T17:08:58.976Z,0.43
2023-02-21T17:11:27.698Z,0.40
2023-02-21T17:13:57.615Z,0.47
2023-02-21T17:16:26.523Z,0.50
2023-02-21T17:18:55.011Z,0.53
2023-02-21T17:21:23.486Z,0.50
2023-02-21T17:23:52.132Z,0.43
2023-02-21T17:26:22.275Z,0.53
2023-02-21T17:28:51.448Z,1.07
2023-02-21T17:31:21.507Z,1.10
2023-02-21T17:33:50.072Z,0.70
2023-02-21T17:36:18.938Z,1.07
2023-02-21T17:38:48.024Z,1.20
2023-02-21T17:41:17.067Z,0.70
2023-02-21T17:43:45.767Z,0.53
2023-02-21T17:46:15.245Z,0.60
2023-02-21T17:48:45.582Z,0.40
2023-02-21T17:51:19.192Z,0.63
2023-02-21T17:53:48.265Z,0.40
2023-02-21T17:56:19.187Z,0.60
2023-02-21T17:58:47.767Z,0.40
2023-02-21T18:01:18.712Z,0.60
2023-02-21T18:03:49.400Z,0.50
2023-02-21T18:06:18.246Z,0.40
2023-02-21T18:08:47.768Z,0.60
2023-02-21T18:11:17.688Z,0.60
2023-02-21T18:13:46.627Z,0.50
2023-02-21T18:16:15.364Z,0.40
2023-02-21T18:18:44.169Z,0.60
2023-02-21T18:21:15.818Z,0.63
2023-02-21T18:23:45.663Z,0.53
2023-02-21T18:26:14.439Z,0.67
2023-02-21T18:28:42.903Z,0.50
2023-02-21T18:31:11.646Z,0.70
2023-02-21T18:33:40.216Z,0.67
2023-02-21T18:36:10.130Z,0.73
2023-02-21T18:38:42.049Z,0.50
2023-02-21T18:41:14.414Z,0.50
2023-02-21T18:43:44.225Z,0.70
2023-02-21T18:46:13.583Z,0.70
2023-02-21T18:48:43.777Z,0.60
2023-02-21T18:51:12.711Z,0.60
2023-02-21T18:53:44.846Z,0.73
2023-02-21T18:56:14.345Z,0.70
2023-02-21T18:58:42.959Z,0.63
2023-02-21T19:01:12.342Z,1.00
2023-02-21T19:03:41.231Z,0.70
2023-02-21T19:06:10.247Z,0.70
2023-02-21T19:08:40.320Z,0.60
2023-02-21T19:11:10.347Z,0.63
2023-02-21T19:13:38.813Z,0.80
2023-02-21T19:16:07.606Z,0.63
2023-02-21T19:18:36.304Z,0.57
2023-02-21T19:21:04.970Z,0.77
2023-02-21T19:23:33.439Z,0.60
2023-02-21T19:26:02.172Z,0.53
2023-02-21T19:28:32.038Z,0.70
2023-02-21T19:31:00.500Z,0.70
2023-02-21T19:33:29.089Z,0.50
2023-02-21T19:35:57.695Z,0.70
2023-02-21T19:38:26.169Z,0.70
2023-02-21T19:40:54.887Z,0.70
2023-02-21T19:43:23.360Z,0.90
2023-02-21T19:45:54.608Z,1.27
2023-02-21T19:48:23.333Z,6.87
2023-02-21T19:50:52.040Z,6.40
2023-02-21T19:53:20.503Z,1.80
2023-02-21T19:55:49.367Z,0.70
2023-02-21T19:58:19.974Z,1.03
2023-02-21T20:00:49.999Z,1.37
2023-02-21T20:03:20.089Z,0.93
2023-02-21T20:05:49.125Z,1.00
2023-02-21T20:08:17.632Z,0.90
2023-02-21T20:10:46.392Z,0.90
2023-02-21T20:13:14.881Z,0.60
2023-02-21T20:15:44.981Z,0.70
2023-02-21T20:18:14.735Z,0.83
2023-02-21T20:20:44.992Z,0.87
2023-02-21T20:23:13.664Z,0.80
2023-02-21T20:25:42.584Z,0.80
2023-02-21T20:28:11.087Z,0.80
2023-02-21T20:30:39.725Z,0.73
2023-02-21T20:33:08.611Z,0.73
2023-02-21T20:35:37.042Z,1.00
2023-02-21T20:38:09.473Z,0.83
2023-02-21T20:40:38.000Z,0.80
2023-02-21T20:43:06.586Z,1.00
2023-02-21T20:45:35.175Z,0.90
2023-02-21T20:48:03.760Z,0.90
2023-02-21T20:50:32.401Z,1.00
2023-02-21T20:53:01.369Z,0.90
2023-02-21T20:55:31.349Z,0.90
2023-02-21T20:57:59.951Z,1.00
2023-02-21T21:00:30.627Z,1.17
2023-02-21T21:02:59.332Z,0.90
2023-02-21T21:05:27.937Z,0.80
2023-02-21T21:07:56.629Z,0.80
2023-02-21T21:10:25.264Z,0.90
2023-02-21T21:12:55.153Z,1.10
2023-02-21T21:15:23.811Z,1.00
2023-02-21T21:17:52.397Z,0.90
2023-02-21T21:20:21.968Z,1.00
2023-02-21T21:22:50.832Z,1.00
2023-02-21T21:25:19.788Z,1.17
2023-02-21T21:27:48.918Z,0.83
2023-02-21T21:30:22.950Z,0.90
2023-02-21T21:32:51.668Z,1.00
2023-02-21T21:35:20.914Z,1.17
2023-02-21T21:37:50.128Z,1.10
2023-02-21T21:40:18.811Z,1.40
2023-02-21T21:42:49.866Z,1.30
2023-02-21T21:45:20.991Z,1.20
2023-02-21T21:47:51.061Z,1.00
2023-02-21T21:50:20.333Z,0.93
2023-02-21T21:52:51.475Z,1.23
2023-02-21T21:55:21.278Z,1.20
2023-02-21T21:57:53.504Z,1.07
2023-02-21T22:00:24.624Z,1.10
2023-02-21T22:02:57.311Z,1.27
2023-02-21T22:05:26.272Z,1.20
2023-02-21T22:07:54.938Z,1.20
2023-02-21T22:10:24.249Z,1.20
2023-02-21T22:12:53.527Z,1.40
2023-02-21T22:15:23.015Z,1.03
2023-02-21T22:17:53.177Z,1.30
2023-02-21T22:20:28.380Z,1.17
2023-02-21T22:22:58.847Z,1.30
2023-02-21T22:25:30.249Z,1.10
2023-02-21T22:27:59.249Z,1.30
2023-02-21T22:30:27.788Z,1.20
2023-02-21T22:32:57.659Z,1.47
2023-02-21T22:35:28.665Z,1.40
2023-02-21T22:38:01.972Z,1.40
2023-02-21T22:40:35.669Z,1.23
2023-02-21T22:43:05.635Z,1.23
2023-02-21T22:45:34.298Z,1.27
2023-02-21T22:48:05.050Z,1.30
2023-02-21T22:50:37.053Z,1.20
2023-02-21T22:53:08.385Z,1.27
2023-02-21T22:55:38.119Z,1.10
2023-02-21T22:58:07.407Z,1.20
2023-02-21T23:00:36.587Z,1.30
2023-02-21T23:03:12.995Z,1.30
2023-02-21T23:05:43.807Z,1.07
2023-02-21T23:08:13.005Z,1.00
2023-02-21T23:10:41.565Z,1.10
2023-02-21T23:13:14.110Z,1.40
2023-02-21T23:15:42.657Z,1.17
2023-02-21T23:18:20.208Z,1.10
2023-02-21T23:20:52.712Z,1.20
2023-02-21T23:23:21.854Z,1.20
2023-02-21T23:25:50.456Z,1.13
2023-02-21T23:28:19.034Z,0.93
2023-02-21T23:30:49.760Z,1.10
2023-02-21T23:33:23.056Z,1.30
2023-02-21T23:35:52.486Z,1.10
2023-02-21T23:38:22.870Z,1.10
2023-02-21T23:40:56.297Z,1.10
2023-02-21T23:43:26.058Z,1.20
2023-02-21T23:45:54.924Z,1.40
2023-02-21T23:48:24.974Z,1.20
2023-02-21T23:50:57.678Z,1.20
2023-02-21T23:53:27.605Z,1.07
2023-02-21T23:55:57.801Z,1.20
2023-02-21T23:58:27.253Z,0.93
